METAR* REPORTS - Stations within 60 miles

(*Meteorological Terminal Aviation Routine weather report)

 

KRDG - Reading, Pennsylvania, USA
Distance from station: SE 19mi, 31km
Updated: Thu, 19-Jul-2018 4:54pm EDT
Clear
Clear
 Wind from calm
Wind: Calm
Temperature: 82°F , 28°C
Heat Index: 81°F , 27°C
Dew Point: 55°F , 13°C
Humidity: 40%
Barometer: 30.07 inHg , 1018.3 hPa
Clouds: Clear
Visibility: 10 miles , 16 km
2018/07/19 20:54 KRDG 192054Z 00000KT 10SM CLR 28/13 A3007 RMK AO2 SLP185 T02830128 56007
KLNS - Lancaster, Pennsylvania, USA
Distance from station: S 33mi, 53km
Updated: Thu, 19-Jul-2018 4:53pm EDT
Clear
Clear
 Wind from varies
Wind: varies 6 mph , 9 km/h
Temperature: 84°F , 29°C
Dew Point: 54°F , 12°C
Humidity: 35%
Barometer: 30.08 inHg , 1018.6 hPa
Clouds: Clear
Visibility: 10 miles , 16 km
2018/07/19 20:53 KLNS 192053Z VRB05KT 10SM CLR 29/12 A3008 RMK AO2 SLP182 T02890117 56006
 
KSEG - Selinsgrove, Pennsylvania, USA
Distance from station: WNW 39mi, 62km
Updated: Thu, 19-Jul-2018 4:53pm EDT
Clear
Clear
 Wind from SE
Wind: SE 5 mph , 7 km/h
Temperature: 82°F , 28°C
Dew Point: 54°F , 12°C
Humidity: 37%
Barometer: 30.08 inHg , 1018.6 hPa
Clouds: Clear
Visibility: 10 miles , 16 km
2018/07/19 20:53 KSEG 192053Z AUTO 14004KT 10SM CLR 28/12 A3008 RMK AO2 SLP183 T02780122 56011
KABE - Allentown, Pennsylvania, USA
Distance from station: E 39mi, 63km
Updated: Thu, 19-Jul-2018 4:51pm EDT
Clear
Clear
 Wind from N
Wind: N 6 mph , 9 km/h
Temperature: 84°F , 29°C
Dew Point: 46°F , 8°C
Humidity: 27%
Barometer: 30.08 inHg , 1018.6 hPa
Clouds: Clear
Visibility: 10 miles , 16 km
2018/07/19 20:51 KABE 192051Z 01005KT 10SM CLR 29/08 A3008 RMK AO2 SLP185 T02890083 56008
 
KMDT - Middletown, Pennsylvania, USA
Distance from station: SW 40mi, 65km
Updated: Thu, 19-Jul-2018 4:56pm EDT
Few Clouds
Few Clouds
 Wind from calm
Wind: Calm
Temperature: 82°F , 28°C
Dew Point: 54°F , 12°C
Humidity: 37%
Barometer: 30.07 inHg , 1018.3 hPa
Clouds: Few Clouds
Visibility: 10 miles , 16 km
Cloud details: Few Clouds 5000 ft
2018/07/19 20:56 KMDT 192056Z 00000KT 10SM FEW050 28/12 A3007 RMK AO2 SLP180 T02830117 56008
KPTW - Pottstown, Pennsylvania, USA
Distance from station: SE 42mi, 67km
Updated: Thu, 19-Jul-2018 4:54pm EDT
Clear
Clear
 Wind from SE
Wind: SE 5 mph , 7 km/h
Temperature: 81°F , 27°C
Dew Point: 48°F , 9°C
Humidity: 32%
Barometer: 30.10 inHg , 1019.3 hPa
Clouds: Clear
Visibility: 10 miles , 16 km
2018/07/19 20:54 KPTW 192054Z AUTO 14004KT 10SM CLR 27/09 A3010 RMK AO2 SLP190 T02670094 56005
 
KCXY - Harrisburg, Pennsylvania, USA
Distance from station: SW 43mi, 69km
Updated: Thu, 19-Jul-2018 4:56pm EDT
Clear
Clear
 Wind from varies
Wind: varies 7 mph , 11 km/h
Temperature: 86°F , 30°C
Dew Point: 54°F , 12°C
Humidity: 33%
Barometer: 30.07 inHg , 1018.3 hPa
Clouds: Clear
Visibility: 10 miles , 16 km
2018/07/19 20:56 KCXY 192056Z VRB06KT 10SM CLR 30/12 A3007 RMK AO2 SLP181 T03000117 56009
KUKT - Quakertown Arp, Pennsylvania, USA
Distance from station: ESE 44mi, 70km
Updated: Thu, 19-Jul-2018 1:15pm EDT
NOT Current
Clear
Clear
 Wind from calm
Wind: Calm
Temperature: 79°F , 26°C
Dew Point: 52°F , 11°C
Humidity: 39%
Barometer: 30.12 inHg , 1020 hPa
Clouds: Clear
Visibility: 10 miles , 16 km
2018/07/19 17:15 KUKT 191715Z AUTO 00000KT 10SM CLR 26/11 A3012 RMK A01
 
KMQS - Coatesville, Pennsylvania, USA
Distance from station: SSE 45mi, 72km
Updated: Thu, 19-Jul-2018 4:55pm EDT
Clear
Clear
 Wind from calm
Wind: Calm
Temperature: 81°F , 27°C
Dew Point: 50°F , 10°C
Humidity: 34%
Barometer: 30.11 inHg , 1019.6 hPa
Clouds: Clear
Visibility: 10 miles , 16 km
2018/07/19 20:55 KMQS 192055Z AUTO 00000KT 10SM CLR 27/10 A3011 RMK AO2
KMPO - Mt. Pocono, Pennsylvania, USA
Distance from station: NE 57mi, 92km
Updated: Thu, 19-Jul-2018 4:53pm EDT
Clear
Clear
 Wind from SE
Wind: SE 8 mph , 13 km/h
Temperature: 75°F , 24°C
Dew Point: 50°F , 10°C
Humidity: 41%
Barometer: 30.13 inHg , 1020.3 hPa
Clouds: Clear
Visibility: 10 miles , 16 km
2018/07/19 20:53 KMPO 192053Z AUTO 14007KT 10SM CLR 24/10 A3013 RMK AO2 SLP199 T02440100 56007
 
KAVP - Avoca/Wilkes B., Pennsylvania, USA
Distance from station: NNE 58mi, 93km
Updated: Thu, 19-Jul-2018 4:54pm EDT
Clear
Clear
 Wind from calm
Wind: Calm
Temperature: 81°F , 27°C
Dew Point: 48°F , 9°C
Humidity: 32%
Barometer: 30.09 inHg , 1019 hPa
Clouds: Clear
Visibility: 10 miles , 16 km
2018/07/19 20:54 KAVP 192054Z 00000KT 10SM CLR 27/09 A3009 RMK AO2 SLP183 T02720089 56009
KTHV - York, Pennsylvania, USA
Distance from station: SW 59mi, 94km
Updated: Thu, 19-Jul-2018 4:53pm EDT
Clear
Clear
 Wind from calm
Wind: Calm
Temperature: 84°F , 29°C
Dew Point: 55°F , 13°C
Humidity: 37%
Barometer: 30.08 inHg , 1018.6 hPa
Clouds: Clear
Visibility: 10 miles , 16 km
2018/07/19 20:53 KTHV 192053Z AUTO 00000KT 10SM CLR 29/13 A3008 RMK AO2 SLP185 T02890133 56009
 
KDYL - Doylestown, Pennsylvania, USA
Distance from station: ESE 59mi, 95km
Updated: Thu, 19-Jul-2018 4:54pm EDT
Clear
Clear
 Wind from varies
Wind: varies 3 mph , 6 km/h
Temperature: 82°F , 28°C
Dew Point: 54°F , 12°C
Humidity: 37%
Barometer: 30.08 inHg , 1018.6 hPa
Clouds: Clear
Visibility: 10 miles , 16 km
2018/07/19 20:54 KDYL 192054Z AUTO VRB03KT 10SM CLR 28/12 A3008 RMK AO2 SLP182 T02780122 56004
KIPT - Williamsport, Pennsylvania, USA
Distance from station: NW 60mi, 96km
Updated: Thu, 19-Jul-2018 4:54pm EDT
Clear
Clear
 Wind from varies
Wind: varies 3 mph , 6 km/h
Temperature: 82°F , 28°C
Dew Point: 50°F , 10°C
Humidity: 32%
Barometer: 30.06 inHg , 1017.9 hPa
Clouds: Clear
Visibility: 10 miles , 16 km
2018/07/19 20:54 KIPT 192054Z VRB03KT 10SM CLR 28/10 A3006 RMK AO2 SLP177 T02830100 56012